createdAt,value
2023-04-01T00:01:07.070Z,99084.84
2023-04-01T00:03:34.967Z,99080.72
2023-04-01T00:06:02.565Z,99085.31
2023-04-01T00:08:29.838Z,99081.19
2023-04-01T00:10:57.878Z,99094.00
2023-04-01T00:13:26.621Z,99086.03
2023-04-01T00:15:54.638Z,99093.28
2023-04-01T00:18:21.731Z,99092.53
2023-04-01T00:20:49.512Z,99101.25
2023-04-01T00:23:16.683Z,99097.84
2023-04-01T00:25:43.488Z,99097.13
2023-04-01T00:28:10.641Z,99096.41
2023-04-01T00:30:38.146Z,99102.44
2023-04-01T00:33:05.008Z,99100.03
2023-04-01T00:35:33.402Z,99100.03
2023-04-01T00:38:00.084Z,99095.19
2023-04-01T00:40:34.014Z,99095.19
2023-04-01T00:43:01.290Z,99101.72
2023-04-01T00:45:39.606Z,99102.69
2023-04-01T00:48:17.898Z,99098.84
2023-04-01T00:50:50.146Z,99099.56
2023-04-01T00:53:18.855Z,99101.25
2023-04-01T00:55:56.334Z,99101.72
2023-04-01T00:58:25.889Z,99099.25
2023-04-01T01:00:53.223Z,99113.00
2023-04-01T01:03:19.957Z,99108.16
2023-04-01T01:06:13.891Z,99109.09
2023-04-01T01:08:49.687Z,99115.63
2023-04-01T01:11:25.246Z,99111.53
2023-04-01T01:14:03.960Z,99114.63
2023-04-01T01:16:33.173Z,99116.56
2023-04-01T01:19:11.542Z,99120.41
2023-04-01T01:21:50.457Z,99116.31
2023-04-01T01:24:50.401Z,99112.91
2023-04-01T01:27:19.592Z,99125.94
2023-04-01T01:29:52.204Z,99121.09
2023-04-01T01:32:40.430Z,99114.31
2023-04-01T01:35:28.847Z,99116.25
2023-04-01T01:38:00.585Z,99125.41
2023-04-01T01:40:29.956Z,99128.78
2023-04-01T01:43:01.450Z,99127.31
2023-04-01T01:45:31.491Z,99130.19
2023-04-01T01:48:00.859Z,99122.88
2023-04-01T01:50:28.734Z,99131.31
2023-04-01T01:53:07.743Z,99136.63
2023-04-01T01:55:37.418Z,99134.16
2023-04-01T01:58:08.526Z,99131.72
2023-04-01T02:00:36.547Z,99133.66
2023-04-01T02:03:04.932Z,99138.22
2023-04-01T02:05:32.838Z,99136.75
2023-04-01T02:08:16.203Z,99134.56
2023-04-01T02:10:48.237Z,99140.81
2023-04-01T02:13:24.625Z,99143.47
2023-04-01T02:15:53.679Z,99142.72
2023-04-01T02:18:21.579Z,99141.03
2023-04-01T02:20:50.161Z,99147.53
2023-04-01T02:23:16.841Z,99142.22
2023-04-01T02:25:45.974Z,99148.72
2023-04-01T02:28:15.400Z,99142.44
2023-04-01T02:30:43.783Z,99147.00
2023-04-01T02:33:11.119Z,99150.13
2023-04-01T02:35:38.315Z,99152.50
2023-04-01T02:38:06.849Z,99152.97
2023-04-01T02:40:49.540Z,99149.59
2023-04-01T02:43:17.240Z,99153.69
2023-04-01T02:45:44.392Z,99153.44
2023-04-01T02:48:10.987Z,99154.34
2023-04-01T02:50:37.479Z,99156.28
2023-04-01T02:53:04.860Z,99158.19
2023-04-01T02:55:32.328Z,99162.78
2023-04-01T02:57:59.529Z,99156.75
2023-04-01T03:00:27.018Z,99159.84
2023-04-01T03:02:53.889Z,99157.19
2023-04-01T03:05:21.177Z,99161.03
2023-04-01T03:07:47.665Z,99164.88
2023-04-01T03:10:14.419Z,99161.50
2023-04-01T03:12:41.376Z,99170.19
2023-04-01T03:15:10.688Z,99167.28
2023-04-01T03:17:40.084Z,99175.97
2023-04-01T03:20:09.535Z,99169.94
2023-04-01T03:22:36.324Z,99182.72
2023-04-01T03:25:05.718Z,99177.41
2023-04-01T03:27:32.594Z,99178.63
2023-04-01T03:29:59.200Z,99179.81
2023-04-01T03:32:29.047Z,99187.50
2023-04-01T03:34:55.628Z,99198.09
2023-04-01T03:37:24.487Z,99202.50
2023-04-01T03:39:52.022Z,99202.50
2023-04-01T03:42:18.823Z,99197.91
2023-04-01T03:44:45.457Z,99203.22
2023-04-01T03:47:12.783Z,99201.28
2023-04-01T03:49:39.241Z,99210.72
2023-04-01T03:52:10.191Z,99210.97
2023-04-01T03:54:36.913Z,99209.53
2023-04-01T03:57:03.634Z,99212.91
2023-04-01T03:59:30.279Z,99215.38
2023-04-01T04:01:56.838Z,99220.22
2023-04-01T04:04:23.493Z,99224.31
2023-04-01T04:06:50.015Z,99221.66
2023-04-01T04:09:16.921Z,99222.41
2023-04-01T04:11:43.345Z,99226.06
2023-04-01T04:14:09.939Z,99234.28
2023-04-01T04:16:39.730Z,99230.44
2023-04-01T04:19:06.576Z,99245.16
2023-04-01T04:21:33.377Z,99241.06
2023-04-01T04:24:01.692Z,99246.63
2023-04-01T04:26:35.440Z,99248.81
2023-04-01T04:29:03.209Z,99252.66
2023-04-01T04:31:30.622Z,99255.59
2023-04-01T04:34:01.908Z,99259.69
2023-04-01T04:36:30.611Z,99260.44
2023-04-01T04:38:58.976Z,99259.69
2023-04-01T04:41:26.813Z,99264.53
2023-04-01T04:43:55.617Z,99278.53
2023-04-01T04:46:23.972Z,99276.59
2023-04-01T04:48:55.978Z,99276.88
2023-04-01T04:51:23.003Z,99283.19
2023-04-01T04:53:51.488Z,99282.72
2023-04-01T04:56:22.219Z,99298.19
2023-04-01T04:58:57.340Z,99301.56
2023-04-01T05:01:28.907Z,99305.69
2023-04-01T05:03:55.626Z,99303.75
2023-04-01T05:06:23.578Z,99312.44
2023-04-01T05:08:50.389Z,99311.25
2023-04-01T05:11:19.359Z,99329.38
2023-04-01T05:13:49.177Z,99326.00
2023-04-01T05:16:19.228Z,99333.50
2023-04-01T05:18:46.414Z,99331.56
2023-04-01T05:21:15.549Z,99338.78
2023-04-01T05:23:43.045Z,99340.72
2023-04-01T05:26:15.134Z,99347.50
2023-04-01T05:28:41.907Z,99349.69
2023-04-01T05:31:14.538Z,99350.88
2023-04-01T05:33:44.417Z,99352.81
2023-04-01T05:36:16.698Z,99363.69
2023-04-01T05:38:46.676Z,99370.91
2023-04-01T05:41:14.802Z,99371.66
2023-04-01T05:43:44.778Z,99372.38
2023-04-01T05:46:32.310Z,99376.97
2023-04-01T05:49:19.142Z,99379.63
2023-04-01T05:51:46.020Z,99385.66
2023-04-01T05:54:12.592Z,99386.66
2023-04-01T05:56:39.756Z,99391.50
2023-04-01T05:59:06.504Z,99385.00
2023-04-01T06:01:33.010Z,99395.63
2023-04-01T06:03:59.746Z,99397.81
2023-04-01T06:06:30.610Z,99407.72
2023-04-01T06:09:14.958Z,99405.06
2023-04-01T06:12:18.777Z,99409.16
2023-04-01T06:15:11.630Z,99415.22
2023-04-01T06:17:41.559Z,99417.13
2023-04-01T06:20:45.200Z,99424.19
2023-04-01T06:23:19.144Z,99424.19
2023-04-01T06:26:01.169Z,99426.84
2023-04-01T06:28:46.261Z,99438.19
2023-04-01T06:31:31.041Z,99442.75
2023-04-01T06:34:16.398Z,99453.19
2023-04-01T06:37:20.687Z,99441.84
2023-04-01T06:40:04.553Z,99453.19
2023-04-01T06:42:41.517Z,99457.31
2023-04-01T06:45:38.859Z,99464.38
2023-04-01T06:48:43.232Z,99467.28
2023-04-01T06:51:58.676Z,99470.69
2023-04-01T06:55:02.113Z,99487.34
2023-04-01T06:58:01.686Z,99480.34
2023-04-01T07:00:33.772Z,99492.44
2023-04-01T07:03:11.609Z,99494.63
2023-04-01T07:05:38.625Z,99496.09
2023-04-01T07:08:14.374Z,99498.31
2023-04-01T07:10:47.013Z,99503.16
2023-04-01T07:13:53.746Z,99502.22
2023-04-01T07:16:39.497Z,99513.88
2023-04-01T07:19:13.144Z,99510.75
2023-04-01T07:21:57.205Z,99521.19
2023-04-01T07:24:44.800Z,99526.03
2023-04-01T07:27:14.453Z,99528.25
2023-04-01T07:29:42.418Z,99534.00
2023-04-01T07:32:27.842Z,99533.09
2023-04-01T07:35:16.324Z,99539.88
2023-04-01T07:37:50.777Z,99547.66
2023-04-01T07:40:46.748Z,99551.31
2023-04-01T07:43:13.367Z,99553.50
2023-04-01T07:46:34.353Z,99560.56
2023-04-01T07:49:28.895Z,99563.97
2023-04-01T07:52:09.974Z,99566.63
2023-04-01T07:54:54.714Z,99571.19
2023-04-01T07:57:28.606Z,99578.72
2023-04-01T08:00:19.669Z,99581.63
2023-04-01T08:03:34.484Z,99587.41
2023-04-01T08:06:13.149Z,99592.44
2023-04-01T08:09:08.752Z,99598.78
2023-04-01T08:12:25.023Z,99599.28
2023-04-01T08:15:15.742Z,99609.47
2023-04-01T08:18:35.813Z,99606.16
2023-04-01T08:21:08.494Z,99614.88
2023-04-01T08:23:41.203Z,99619.00
2023-04-01T08:26:14.833Z,99627.41
2023-04-01T08:28:55.822Z,99618.25
2023-04-01T08:31:34.202Z,99641.72
2023-04-01T08:34:03.694Z,99636.84
2023-04-01T08:36:37.329Z,99644.84
2023-04-01T08:39:30.182Z,99650.69
2023-04-01T08:42:31.360Z,99656.75
2023-04-01T08:45:34.541Z,99657.47
2023-04-01T08:48:17.699Z,99659.94
2023-04-01T08:51:05.178Z,99670.41
2023-04-01T08:54:11.950Z,99665.09
2023-04-01T08:56:48.832Z,99674.53
2023-04-01T08:59:38.155Z,99673.16
2023-04-01T09:02:55.179Z,99681.69
2023-04-01T09:05:30.239Z,99679.38
2023-04-01T09:08:15.460Z,99681.56
2023-04-01T09:11:24.191Z,99684.75
2023-04-01T09:14:18.644Z,99691.09
2023-04-01T09:17:25.622Z,99688.69
2023-04-01T09:20:28.896Z,99698.41
2023-04-01T09:23:29.174Z,99708.88
2023-04-01T09:26:11.720Z,99711.06
2023-04-01T09:28:56.688Z,99712.09
2023-04-01T09:31:51.275Z,99716.78
2023-04-01T09:35:03.702Z,99725.31
2023-04-01T09:37:47.982Z,99721.81
2023-04-01T09:40:27.127Z,99724.53
2023-04-01T09:43:22.352Z,99733.31
2023-04-01T09:45:58.530Z,99732.69
2023-04-01T09:49:02.318Z,99742.00
2023-04-01T09:51:52.692Z,99742.97
2023-04-01T09:54:37.240Z,99745.69
2023-04-01T09:57:22.259Z,99751.75
2023-04-01T10:00:22.734Z,99750.81
2023-04-01T10:03:09.955Z,99747.84
2023-04-01T10:06:14.257Z,99751.69
2023-04-01T10:09:18.146Z,99753.22
2023-04-01T10:12:14.030Z,99757.50
2023-04-01T10:15:08.688Z,99760.50
2023-04-01T10:18:00.431Z,99765.63
2023-04-01T10:20:40.816Z,99772.22
2023-04-01T10:23:32.141Z,99766.22
2023-04-01T10:26:29.981Z,99774.91
2023-04-01T10:29:32.940Z,99773.69
2023-04-01T10:32:15.826Z,99773.97
2023-04-01T10:35:19.724Z,99778.31
2023-04-01T10:38:04.701Z,99787.50
2023-04-01T10:40:59.840Z,99783.91
2023-04-01T10:44:22.883Z,99790.91
2023-04-01T10:47:11.264Z,99784.00
2023-04-01T10:49:44.428Z,99785.78
2023-04-01T10:52:23.575Z,99791.84
2023-04-01T10:55:46.581Z,99793.09
2023-04-01T10:59:05.509Z,99803.66
2023-04-01T11:02:19.617Z,99800.88
2023-04-01T11:05:32.491Z,99805.16
2023-04-01T11:08:51.105Z,99813.31
2023-04-01T11:11:18.526Z,99809.59
2023-04-01T11:14:03.795Z,99807.69
2023-04-01T11:16:32.990Z,99811.91
2023-04-01T11:19:18.121Z,99818.56
2023-04-01T11:22:18.738Z,99823.91
2023-04-01T11:25:21.401Z,99822.75
2023-04-01T11:28:25.864Z,99832.69
2023-04-01T11:30:59.678Z,99830.28
2023-04-01T11:33:37.995Z,99841.88
2023-04-01T11:36:32.171Z,99844.09
2023-04-01T11:39:21.511Z,99850.69
2023-04-01T11:42:03.247Z,99854.38
2023-04-01T11:45:07.382Z,99854.84
2023-04-01T11:47:53.661Z,99860.88
2023-04-01T11:50:41.324Z,99864.69
2023-04-01T11:53:26.921Z,99862.91
2023-04-01T11:56:12.593Z,99877.81
2023-04-01T11:58:52.143Z,99878.00
2023-04-01T12:01:31.344Z,99883.53
2023-04-01T12:04:19.258Z,99882.25
2023-04-01T12:07:13.866Z,99888.59
2023-04-01T12:09:48.321Z,99893.00
2023-04-01T12:12:57.986Z,99892.16
2023-04-01T12:15:38.321Z,99902.91
2023-04-01T12:18:25.002Z,99901.28
2023-04-01T12:21:00.128Z,99909.81
2023-04-01T12:23:52.626Z,99913.50
2023-04-01T12:26:43.080Z,99908.56
2023-04-01T12:29:35.834Z,99913.81
2023-04-01T12:32:34.908Z,99917.97
2023-04-01T12:35:12.919Z,99920.63
2023-04-01T12:37:52.824Z,99933.91
2023-04-01T12:40:22.151Z,99929.03
2023-04-01T12:43:22.796Z,99930.75
2023-04-01T12:46:10.075Z,99936.44
2023-04-01T12:48:57.954Z,99933.56
2023-04-01T12:51:47.326Z,99939.91
2023-04-01T12:54:25.895Z,99947.44
2023-04-01T12:57:16.776Z,99939.75
2023-04-01T12:59:46.275Z,99942.47
2023-04-01T13:02:22.891Z,99942.47
2023-04-01T13:05:25.384Z,99947.13
2023-04-01T13:08:35.680Z,99962.34
2023-04-01T13:11:18.465Z,99959.81
2023-04-01T13:14:11.896Z,99960.81
2023-04-01T13:17:06.026Z,99971.03
2023-04-01T13:19:32.454Z,99968.56
2023-04-01T13:22:17.225Z,99974.63
2023-04-01T13:24:59.689Z,99983.03
2023-04-01T13:27:34.946Z,99985.91
2023-04-01T13:30:45.705Z,99988.50
2023-04-01T13:33:23.814Z,99989.44
2023-04-01T13:36:16.454Z,99992.28
2023-04-01T13:39:16.509Z,99996.50
2023-04-01T13:42:12.450Z,100000.75
2023-04-01T13:44:54.121Z,99999.63
2023-04-01T13:47:29.296Z,99994.69
2023-04-01T13:50:08.685Z,100012.38
2023-04-01T13:52:43.266Z,100015.22
2023-04-01T13:55:36.968Z,100020.47
2023-04-01T13:58:21.858Z,100014.22
2023-04-01T14:00:55.224Z,100023.22
2023-04-01T14:03:59.611Z,100019.09
2023-04-01T14:06:47.984Z,100024.59
2023-04-01T14:09:24.727Z,100030.41
2023-04-01T14:12:28.918Z,100045.38
2023-04-01T14:15:12.306Z,100049.06
2023-04-01T14:17:45.679Z,100052.38
2023-04-01T14:20:44.169Z,100063.41
2023-04-01T14:23:28.098Z,100063.31
2023-04-01T14:26:19.467Z,100063.47
2023-04-01T14:29:24.291Z,100074.78
2023-04-01T14:31:58.373Z,100067.91
2023-04-01T14:34:43.794Z,100078.75
2023-04-01T14:37:37.888Z,100080.13
2023-04-01T14:40:27.628Z,100087.84
2023-04-01T14:43:04.833Z,100096.44
2023-04-01T14:46:07.114Z,100104.16
2023-04-01T14:48:39.231Z,100105.81
2023-04-01T14:51:19.718Z,100117.66
2023-04-01T14:54:18.305Z,100118.13
2023-04-01T14:56:49.241Z,100121.97
2023-04-01T14:59:28.835Z,100130.59
2023-04-01T15:01:59.018Z,100130.13
2023-04-01T15:05:11.468Z,100136.38
2023-04-01T15:08:11.747Z,100142.13
2023-04-01T15:10:54.673Z,100153.97
2023-04-01T15:13:38.700Z,100148.66
2023-04-01T15:16:23.822Z,100158.13
2023-04-01T15:19:20.956Z,100162.69
2023-04-01T15:22:29.892Z,100170.06
2023-04-01T15:25:29.247Z,100177.16
2023-04-01T15:28:10.690Z,100177.44
2023-04-01T15:30:49.657Z,100182.59
2023-04-01T15:33:30.022Z,100188.53
2023-04-01T15:36:17.278Z,100192.84
2023-04-01T15:38:58.185Z,100193.88
2023-04-01T15:41:50.033Z,100208.66
2023-04-01T15:44:28.641Z,100218.75
2023-04-01T15:46:57.534Z,100222.59
2023-04-01T15:49:43.245Z,100228.81
2023-04-01T15:52:37.739Z,100225.78
2023-04-01T15:55:21.737Z,100232.00
2023-04-01T15:58:06.125Z,100236.03
2023-04-01T16:00:34.829Z,100243.44
2023-04-01T16:03:04.199Z,100255.88
2023-04-01T16:06:11.458Z,100259.88
2023-04-01T16:08:47.102Z,100269.22
2023-04-01T16:11:44.357Z,100265.25
2023-04-01T16:14:25.889Z,100269.53
2023-04-01T16:17:17.012Z,100284.22
2023-04-01T16:20:03.514Z,100284.53
2023-04-01T16:22:38.313Z,100291.63
2023-04-01T16:25:24.170Z,100291.34
2023-04-01T16:28:28.270Z,100295.63
2023-04-01T16:31:04.693Z,100312.44
2023-04-01T16:33:53.074Z,100308.91
2023-04-01T16:36:25.548Z,100313.50
2023-04-01T16:38:51.943Z,100321.19
2023-04-01T16:41:21.334Z,100325.47
2023-04-01T16:43:58.039Z,100331.97
2023-04-01T16:46:42.110Z,100337.44
2023-04-01T16:49:23.580Z,100339.97
2023-04-01T16:52:09.386Z,100345.88
2023-04-01T16:55:03.049Z,100352.09
2023-04-01T16:57:44.746Z,100365.09
2023-04-01T17:00:46.669Z,100371.00
2023-04-01T17:03:21.533Z,100388.41
2023-04-01T17:06:01.967Z,100390.91
2023-04-01T17:08:50.349Z,100391.47
2023-04-01T17:11:48.666Z,100399.88
2023-04-01T17:14:18.304Z,100406.56
2023-04-01T17:16:53.654Z,100413.19
2023-04-01T17:19:43.523Z,100420.97
2023-04-01T17:22:22.259Z,100420.38
2023-04-01T17:25:13.154Z,100432.63
2023-04-01T17:27:57.705Z,100441.47
2023-04-01T17:30:46.977Z,100450.91
2023-04-01T17:33:19.222Z,100446.59
2023-04-01T17:35:57.477Z,100457.22
2023-04-01T17:38:51.111Z,100457.97
2023-04-01T17:41:29.865Z,100475.22
2023-04-01T17:43:59.449Z,100480.66
2023-04-01T17:47:15.358Z,100481.69
2023-04-01T17:49:53.542Z,100493.19
2023-04-01T17:52:29.065Z,100502.00
2023-04-01T17:55:33.081Z,100499.03
2023-04-01T17:58:28.337Z,100502.88
2023-04-01T18:01:01.397Z,100521.59
2023-04-01T18:04:05.100Z,100526.16
2023-04-01T18:06:46.234Z,100539.44
2023-04-01T18:09:43.473Z,100533.19
2023-04-01T18:12:43.633Z,100544.78
2023-04-01T18:15:45.852Z,100557.34
2023-04-01T18:18:12.683Z,100558.50
2023-04-01T18:20:58.880Z,100561.28
2023-04-01T18:23:37.054Z,100572.22
2023-04-01T18:26:09.447Z,100579.00
2023-04-01T18:28:58.155Z,100582.19
2023-04-01T18:31:32.930Z,100594.09
2023-04-01T18:34:09.634Z,100599.97
2023-04-01T18:36:45.350Z,100603.50
2023-04-01T18:39:17.453Z,100606.25
2023-04-01T18:41:57.090Z,100623.34
2023-04-01T18:44:31.128Z,100616.13
2023-04-01T18:47:43.508Z,100637.47
2023-04-01T18:50:25.343Z,100635.25
2023-04-01T18:52:59.735Z,100641.09
2023-04-01T18:55:43.856Z,100657.88
2023-04-01T18:58:24.523Z,100656.81
2023-04-01T19:01:12.059Z,100663.28
2023-04-01T19:03:54.043Z,100667.22
2023-04-01T19:06:36.034Z,100682.28
2023-04-01T19:09:20.410Z,100680.06
2023-04-01T19:12:03.558Z,100683.88
2023-04-01T19:15:08.477Z,100694.59
2023-04-01T19:18:03.677Z,100699.91
2023-04-01T19:20:35.907Z,100702.97
2023-04-01T19:23:21.507Z,100712.09
2023-04-01T19:25:56.492Z,100719.75
2023-04-01T19:28:51.847Z,100729.31
2023-04-01T19:31:39.720Z,100733.19
2023-04-01T19:34:28.703Z,100746.56
2023-04-01T19:37:21.475Z,100751.53
2023-04-01T19:40:06.835Z,100749.31
2023-04-01T19:42:51.630Z,100756.53
2023-04-01T19:45:25.024Z,100767.97
2023-04-01T19:48:16.434Z,100768.81
2023-04-01T19:51:10.925Z,100768.50
2023-04-01T19:54:27.798Z,100777.59
2023-04-01T19:57:12.416Z,100783.66
2023-04-01T20:00:12.781Z,100787.91
2023-04-01T20:02:54.971Z,100805.81
2023-04-01T20:05:47.906Z,100809.38
2023-04-01T20:08:51.741Z,100813.00
2023-04-01T20:11:30.532Z,100819.13
2023-04-01T20:14:22.521Z,100835.88
2023-04-01T20:16:55.395Z,100842.00
2023-04-01T20:19:42.641Z,100842.41
2023-04-01T20:31:25.872Z,100874.06
2023-04-01T20:34:02.647Z,100879.78
2023-04-01T20:36:48.676Z,100876.81
2023-04-01T20:49:00.715Z,100908.50
2023-04-01T20:51:31.694Z,100918.06
2023-04-01T20:54:34.021Z,100920.03
2023-04-01T21:00:51.341Z,100931.88
2023-04-01T21:03:47.476Z,100932.63
2023-04-01T21:06:32.866Z,100940.16
2023-04-01T21:09:21.167Z,100950.75
2023-04-01T21:11:55.709Z,100954.63
2023-04-01T21:15:06.870Z,100958.84
2023-04-01T21:18:05.347Z,100967.63
2023-04-01T21:21:13.832Z,100968.03
2023-04-01T21:23:42.928Z,100977.63
2023-04-01T21:26:43.800Z,100980.00
2023-04-01T21:29:48.984Z,100992.22
2023-04-01T21:32:47.666Z,101001.31
2023-04-01T21:35:45.544Z,101004.06
2023-04-01T21:38:39.153Z,101015.88
2023-04-01T21:41:10.445Z,101016.28
2023-04-01T21:44:01.842Z,101027.28
2023-04-01T21:46:40.364Z,101027.34
2023-04-01T21:49:16.040Z,101038.00
2023-04-01T21:52:19.766Z,101033.53
2023-04-01T21:54:59.661Z,101046.06
2023-04-01T21:57:38.495Z,101051.03
2023-04-01T22:00:30.303Z,101052.94
2023-04-01T22:02:59.290Z,101054.47
2023-04-01T22:05:31.757Z,101065.47
2023-04-01T22:08:21.032Z,101074.16
2023-04-01T22:11:02.240Z,101077.56
2023-04-01T22:13:51.526Z,101084.06
2023-04-01T22:16:44.239Z,101077.66
2023-04-01T22:19:23.052Z,101093.28
2023-04-01T22:22:06.881Z,101100.53
2023-04-01T22:24:41.469Z,101098.34
2023-04-01T22:27:27.189Z,101109.34
2023-04-01T22:30:24.213Z,101113.53
2023-04-01T22:33:27.265Z,101113.53
2023-04-01T22:35:53.701Z,101121.94
2023-04-01T22:38:45.213Z,101124.56
2023-04-01T22:41:28.406Z,101134.41
2023-04-01T22:43:57.775Z,101138.94
2023-04-01T22:46:31.261Z,101144.28
2023-04-01T22:49:10.528Z,101143.19
2023-04-01T22:52:00.638Z,101142.84
2023-04-01T22:54:43.078Z,101154.13
2023-04-01T22:57:15.191Z,101160.22
2023-04-01T23:00:09.174Z,101156.13
2023-04-01T23:03:01.472Z,101158.00
2023-04-01T23:05:29.679Z,101169.75
2023-04-01T23:08:22.246Z,101173.53
2023-04-01T23:10:55.450Z,101181.13
2023-04-01T23:13:32.455Z,101179.63
2023-04-01T23:15:59.730Z,101179.34
2023-04-01T23:18:43.166Z,101185.44
2023-04-01T23:21:29.942Z,101192.63
2023-04-01T23:24:08.505Z,101203.97
2023-04-01T23:26:53.187Z,101208.88
2023-04-01T23:29:21.399Z,101214.22
2023-04-01T23:31:57.262Z,101210.06
2023-04-01T23:34:28.567Z,101222.88
2023-04-01T23:37:10.638Z,101224.06
2023-04-01T23:39:42.580Z,101224.50
2023-04-01T23:42:20.591Z,101235.50
2023-04-01T23:44:50.030Z,101235.53
2023-04-01T23:47:21.459Z,101232.91
2023-04-01T23:50:15.954Z,101239.75
2023-04-01T23:53:13.659Z,101252.25
2023-04-01T23:55:42.585Z,101254.16
2023-04-01T23:58:19.480Z,101262.81
